Time;durP1;ratioP1;P1;durP2;ratioP2;P2;SDS_P1;SDS_P2;PMS_P1;PMS_P2;Temp;Humidity;BMP_temperature;BMP_pressure;BME280_temperature;BME280_humidity;BME280_pressure;Samples;Min_cycle;Max_cycle;Signal;HPM_P1;HPM_P2
2023/09/22 00:02:03;;;;;;;8.80;3.35;;;;;;;18.87;100.00;93171.75;5109799;27;20078;-83
2023/09/22 00:04:31;;;;;;;8.63;3.65;;;;;;;19.02;100.00;93209.22;5109744;27;20136;-84
2023/09/22 00:06:58;;;;;;;6.15;3.45;;;;;;;19.05;100.00;93219.13;5111956;27;20043;-84
2023/09/22 00:09:25;;;;;;;9.48;3.42;;;;;;;18.95;100.00;93215.47;5109635;27;20050;-84
2023/09/22 00:11:51;;;;;;;8.02;3.53;;;;;;;19.06;100.00;93220.69;5109556;27;20445;-83
2023/09/22 00:14:20;;;;;;;7.68;3.38;;;;;;;19.10;100.00;93211.31;5117260;27;20054;-83
2023/09/22 00:16:46;;;;;;;8.65;3.40;;;;;;;18.86;100.00;93177.19;5109696;27;20048;-83
2023/09/22 00:19:14;;;;;;;7.75;3.90;;;;;;;19.04;100.00;93207.94;5109389;27;20058;-83
2023/09/22 00:21:41;;;;;;;7.07;3.28;;;;;;;19.03;100.00;93210.78;5109681;27;20088;-83
2023/09/22 00:24:09;;;;;;;9.60;3.78;;;;;;;19.05;100.00;93206.09;5109510;27;20051;-83
2023/09/22 00:26:35;;;;;;;10.82;4.30;;;;;;;18.88;100.00;93185.53;5109290;27;20051;-84
2023/09/22 00:29:02;;;;;;;11.60;4.53;;;;;;;19.01;100.00;93197.22;5110914;27;20043;-84
2023/09/22 00:31:30;;;;;;;6.63;3.83;;;;;;;19.02;100.00;93196.19;5116061;27;20542;-83
2023/09/22 00:33:57;;;;;;;7.40;4.03;;;;;;;19.07;100.00;93210.00;5110726;27;20062;-83
2023/09/22 00:36:25;;;;;;;6.47;3.50;;;;;;;19.08;100.00;93221.22;5112023;27;20048;-83
2023/09/22 00:38:52;;;;;;;9.43;3.72;;;;;;;19.05;100.00;93219.91;5109314;27;20047;-83
2023/09/22 00:41:19;;;;;;;6.50;3.30;;;;;;;18.95;100.00;93153.00;5111929;27;20127;-84
2023/09/22 00:43:46;;;;;;;7.35;3.67;;;;;;;18.81;100.00;93082.50;5108801;27;20058;-81
2023/09/22 00:46:13;;;;;;;17.33;4.35;;;;;;;18.83;100.00;93160.28;5109031;27;20407;-84
2023/09/22 00:48:42;;;;;;;9.27;4.18;;;;;;;18.76;100.00;93172.78;5109258;27;20047;-84
2023/09/22 00:51:09;;;;;;;10.30;4.53;;;;;;;18.75;100.00;93161.59;5109316;27;20132;-84
2023/09/22 00:53:39;;;;;;;9.80;4.20;;;;;;;18.81;100.00;93152.75;5111049;27;20059;-84
2023/09/22 00:56:07;;;;;;;8.93;4.55;;;;;;;18.76;100.00;93131.16;5111905;27;20040;-81
2023/09/22 00:58:34;;;;;;;8.77;4.78;;;;;;;18.63;100.00;93140.28;5108738;27;20051;-82
2023/09/22 01:01:02;;;;;;;7.40;4.72;;;;;;;18.51;100.00;93138.72;5107875;27;20427;-82
2023/09/22 01:03:30;;;;;;;8.88;4.85;;;;;;;18.50;100.00;93133.78;5113018;27;20052;-82
2023/09/22 01:05:58;;;;;;;11.93;4.22;;;;;;;18.36;100.00;93118.69;5108735;27;20392;-81
2023/09/22 01:08:25;;;;;;;8.90;4.45;;;;;;;18.43;100.00;93131.44;5108606;27;20776;-84
2023/09/22 01:10:52;;;;;;;9.98;4.68;;;;;;;18.42;100.00;93138.47;5107525;27;20051;-82
2023/09/22 01:13:19;;;;;;;9.32;4.60;;;;;;;18.38;100.00;93137.41;5110617;27;20431;-81
2023/09/22 01:15:45;;;;;;;9.35;5.03;;;;;;;18.38;100.00;93147.06;5108427;27;20051;-81
2023/09/22 01:18:14;;;;;;;8.38;4.50;;;;;;;18.17;100.00;93147.03;5111865;27;20071;-81
2023/09/22 01:20:42;;;;;;;9.02;4.78;;;;;;;18.02;100.00;93158.16;5108784;27;20521;-82
2023/09/22 01:23:12;;;;;;;8.95;5.25;;;;;;;17.74;100.00;93144.59;5109376;27;20047;-81
2023/09/22 01:25:39;;;;;;;11.05;5.18;;;;;;;17.84;100.00;93162.81;5112370;27;20398;-84
2023/09/22 01:28:06;;;;;;;10.32;4.60;;;;;;;17.86;100.00;93162.53;5108579;27;20077;-80
2023/09/22 01:30:33;;;;;;;6.38;4.13;;;;;;;17.88;100.00;93161.22;5107748;28;20066;-82
2023/09/22 01:33:03;;;;;;;9.95;5.45;;;;;;;17.86;100.00;93171.09;5109828;27;20495;-83
2023/09/22 01:35:35;;;;;;;12.30;5.22;;;;;;;17.67;100.00;93162.22;5111868;27;20503;-83
2023/09/22 01:38:12;;;;;;;8.95;5.03;;;;;;;17.59;100.00;93147.91;5108603;28;20044;-83
2023/09/22 01:40:39;;;;;;;11.05;5.13;;;;;;;17.77;100.00;93183.81;5108952;27;20100;-82
2023/09/22 01:43:06;;;;;;;8.68;5.20;;;;;;;17.86;100.00;93178.91;5111636;27;20043;-83
2023/09/22 01:45:33;;;;;;;8.65;5.07;;;;;;;17.91;100.00;93159.94;5107602;28;20058;-83
2023/09/22 01:48:00;;;;;;;10.30;5.28;;;;;;;17.94;100.00;93143.06;5110449;27;20058;-83
2023/09/22 01:50:27;;;;;;;7.38;4.85;;;;;;;17.92;100.00;93138.13;5123146;27;20047;-83
2023/09/22 01:52:54;;;;;;;11.55;5.88;;;;;;;17.90;100.00;93128.00;5110645;27;20055;-85
2023/09/22 01:55:22;;;;;;;10.25;5.30;;;;;;;17.94;100.00;93140.47;5110747;27;20503;-85
2023/09/22 01:57:49;;;;;;;7.95;4.93;;;;;;;17.93;100.00;93136.31;5109600;28;20048;-85
2023/09/22 02:00:18;;;;;;;10.25;4.68;;;;;;;17.92;100.00;93127.75;5109716;28;20043;-83
2023/09/22 02:02:46;;;;;;;9.80;5.25;;;;;;;17.92;100.00;93125.16;5108037;28;20206;-83
2023/09/22 02:05:14;;;;;;;9.02;5.05;;;;;;;17.79;100.00;93110.81;5110206;28;20039;-84
2023/09/22 02:07:42;;;;;;;9.57;4.70;;;;;;;17.74;100.00;93103.00;5110067;28;20065;-85
2023/09/22 02:10:11;;;;;;;8.07;4.88;;;;;;;17.84;100.00;93125.63;5108436;28;20075;-86
2023/09/22 02:12:40;;;;;;;13.07;6.28;;;;;;;17.72;100.00;93108.47;5109150;28;20052;-85
2023/09/22 02:15:09;;;;;;;9.80;5.60;;;;;;;17.74;100.00;93105.63;5117830;28;20044;-84
2023/09/22 02:17:37;;;;;;;8.32;5.28;;;;;;;17.77;100.00;93112.88;5111046;27;20044;-84
2023/09/22 02:20:11;;;;;;;9.20;5.07;;;;;;;17.74;100.00;93116.78;5116721;27;20048;-85
2023/09/22 02:22:38;;;;;;;9.55;6.07;;;;;;;17.73;100.00;93120.41;5125433;27;20047;-83
2023/09/22 02:25:05;;;;;;;10.55;5.32;;;;;;;17.62;100.00;93117.03;5121719;27;20411;-84
2023/09/22 02:27:32;;;;;;;8.07;4.78;;;;;;;17.62;100.00;93122.22;5113282;27;20070;-84
2023/09/22 02:30:00;;;;;;;14.45;4.50;;;;;;;17.60;100.00;93108.69;5115148;27;20411;-83
2023/09/22 02:32:27;;;;;;;7.13;4.68;;;;;;;17.46;100.00;93092.81;5112053;27;20058;-83
2023/09/22 02:34:54;;;;;;;11.00;5.35;;;;;;;17.55;100.00;93105.31;5115652;27;20047;-85
2023/09/22 02:37:21;;;;;;;8.48;4.72;;;;;;;17.48;100.00;93097.75;5111646;27;20104;-82
2023/09/22 02:39:48;;;;;;;7.65;4.47;;;;;;;17.40;100.00;93099.00;5115055;27;20633;-83
2023/09/22 02:42:15;;;;;;;11.73;5.00;;;;;;;17.40;100.00;93101.63;5111947;27;20051;-82
2023/09/22 02:44:42;;;;;;;8.73;4.85;;;;;;;17.31;100.00;93096.13;5115519;27;20044;-83
2023/09/22 02:47:10;;;;;;;8.40;5.03;;;;;;;17.28;100.00;93088.88;5111844;27;20044;-83
2023/09/22 02:49:37;;;;;;;9.27;5.00;;;;;;;17.17;100.00;93089.88;5115864;27;20068;-82
2023/09/22 02:52:04;;;;;;;7.93;4.07;;;;;;;17.12;100.00;93090.59;5111504;27;20047;-83
2023/09/22 02:54:31;;;;;;;7.60;4.22;;;;;;;17.11;100.00;93099.44;5111773;27;20048;-84
2023/09/22 02:56:58;;;;;;;8.45;4.78;;;;;;;16.95;100.00;93086.34;5110593;28;20048;-84
2023/09/22 02:59:25;;;;;;;9.15;4.50;;;;;;;17.03;100.00;93105.13;5110657;28;20498;-84
2023/09/22 03:01:52;;;;;;;6.97;3.97;;;;;;;16.85;100.00;93085.53;5125704;27;20050;-84
2023/09/22 03:04:20;;;;;;;6.32;3.70;;;;;;;16.97;100.00;93112.03;5111344;27;20116;-85
2023/09/22 03:06:47;;;;;;;9.02;4.07;;;;;;;16.86;100.00;93105.25;5111065;27;20055;-84
2023/09/22 03:09:14;;;;;;;8.45;3.97;;;;;;;16.87;100.00;93104.19;5115342;27;20622;-83
2023/09/22 03:11:42;;;;;;;10.43;4.78;;;;;;;16.76;100.00;93085.22;5114728;27;20047;-85
2023/09/22 03:14:09;;;;;;;9.43;4.90;;;;;;;16.86;100.00;93098.25;5110678;27;20096;-85
2023/09/22 03:16:37;;;;;;;9.40;5.28;;;;;;;16.74;100.00;93090.66;5114793;27;20084;-84
2023/09/22 03:19:04;;;;;;;6.88;4.28;;;;;;;16.79;100.00;93100.25;5113252;27;20055;-84
2023/09/22 03:21:32;;;;;;;7.93;4.80;;;;;;;16.78;100.00;93093.53;5110871;27;20051;-84
2023/09/22 03:23:59;;;;;;;8.93;4.07;;;;;;;16.79;100.00;93108.03;5111648;27;20047;-84
2023/09/22 03:26:25;;;;;;;6.70;4.72;;;;;;;16.73;100.00;93114.25;5110475;28;20040;-84
2023/09/22 03:28:52;;;;;;;8.38;4.28;;;;;;;16.69;100.00;93114.75;5110676;27;20058;-84
2023/09/22 03:31:19;;;;;;;10.27;4.30;;;;;;;16.69;100.00;93117.34;5114635;27;20055;-84
2023/09/22 03:33:47;;;;;;;8.20;4.00;;;;;;;16.64;100.00;93125.09;5110552;27;20043;-84
2023/09/22 03:36:14;;;;;;;5.32;3.90;;;;;;;16.49;100.00;93099.84;5110665;27;20117;-84
2023/09/22 03:38:46;;;;;;;7.55;3.60;;;;;;;16.60;100.00;93118.03;5110728;27;20412;-84
2023/09/22 03:41:15;;;;;;;9.75;3.72;;;;;;;16.47;100.00;93114.84;5110069;27;20050;-86
2023/09/22 03:43:43;;;;;;;11.48;5.13;;;;;;;16.56;100.00;93128.94;5115097;27;20124;-86
2023/09/22 03:46:10;;;;;;;6.80;3.90;;;;;;;16.44;100.00;93117.94;5110141;27;20052;-83
2023/09/22 03:48:37;;;;;;;11.63;4.28;;;;;;;16.51;100.00;93131.47;5112625;27;20097;-84
2023/09/22 03:51:04;;;;;;;9.30;3.83;;;;;;;16.48;100.00;93124.19;5114242;27;20051;-84
2023/09/22 03:53:31;;;;;;;7.47;3.35;;;;;;;16.43;100.00;93135.31;5111957;27;20075;-85
2023/09/22 03:55:59;;;;;;;12.63;3.72;;;;;;;16.33;100.00;93126.69;5110346;27;20415;-83
2023/09/22 03:58:26;;;;;;;9.88;4.57;;;;;;;16.23;100.00;93127.34;5129248;27;20679;-85
2023/09/22 04:01:04;;;;;;;6.70;3.80;;;;;;;16.34;100.00;93125.66;5128466;27;20066;-85
2023/09/22 04:03:31;;;;;;;7.95;4.15;;;;;;;16.33;100.00;93132.63;5126276;27;20499;-85
2023/09/22 04:05:58;;;;;;;9.60;3.85;;;;;;;16.29;100.00;93127.16;5109900;27;20039;-85
2023/09/22 04:08:25;;;;;;;7.32;4.25;;;;;;;16.23;100.00;93120.38;5112114;27;20044;-85
2023/09/22 04:10:52;;;;;;;7.30;4.35;;;;;;;16.31;100.00;93142.47;5108829;28;20059;-84
2023/09/22 04:13:20;;;;;;;8.82;4.07;;;;;;;16.25;100.00;93128.69;5111943;27;20063;-84
2023/09/22 04:15:47;;;;;;;8.18;4.20;;;;;;;16.33;100.00;93137.06;5109674;27;20047;-85
2023/09/22 04:18:14;;;;;;;11.18;5.85;;;;;;;16.34;100.00;93136.00;5114220;27;20044;-84
2023/09/22 04:20:44;;;;;;;7.97;5.30;;;;;;;16.32;100.00;93136.25;5110200;27;20096;-85
2023/09/22 04:23:11;;;;;;;9.10;5.13;;;;;;;16.31;100.00;93139.88;5116322;27;20047;-86
2023/09/22 04:25:38;;;;;;;7.22;5.05;;;;;;;16.32;100.00;93135.47;5114800;27;20052;-86
2023/09/22 04:28:11;;;;;;;6.65;5.07;;;;;;;16.09;100.00;93095.88;5108831;27;20044;-85
2023/09/22 04:30:40;;;;;;;8.07;4.90;;;;;;;16.31;100.00;93132.09;5109767;27;20048;-84
2023/09/22 04:33:08;;;;;;;13.43;5.28;;;;;;;16.31;100.00;93134.69;5109224;27;20047;-82
2023/09/22 04:35:37;;;;;;;7.53;4.85;;;;;;;16.26;100.00;93127.66;5110781;27;20070;-83
2023/09/22 04:38:23;;;;;;;8.43;5.97;;;;;;;16.29;100.00;93131.56;5109618;27;20514;-83
2023/09/22 04:40:49;;;;;;;;;;;;;;;16.31;100.00;93129.50;5114090;27;20050;-83
2023/09/22 04:43:16;;;;;;;11.05;6.07;;;;;;;16.26;100.00;93126.88;5112423;27;19945;-83
2023/09/22 04:45:45;;;;;;;9.32;5.53;;;;;;;16.25;100.00;93123.50;5115925;27;20608;-83
2023/09/22 04:48:13;;;;;;;10.35;6.10;;;;;;;16.27;100.00;93123.25;5113015;27;20141;-83
2023/09/22 04:50:40;;;;;;;10.10;5.80;;;;;;;16.07;100.00;93087.59;5121044;27;20044;-82
2023/09/22 04:53:07;;;;;;;11.98;6.53;;;;;;;16.38;100.00;93117.13;5112636;27;20499;-83
2023/09/22 04:55:35;;;;;;;12.02;6.57;;;;;;;16.40;100.00;93109.88;5109025;27;20047;-83
2023/09/22 04:58:03;;;;;;;14.77;6.95;;;;;;;16.50;100.00;93113.56;5109196;27;20052;-82
2023/09/22 05:00:33;;;;;;;9.82;6.68;;;;;;;16.51;100.00;93117.72;5109218;27;20047;-83
2023/09/22 05:03:01;;;;;;;12.05;5.50;;;;;;;16.51;100.00;93120.31;5112810;27;20069;-83
2023/09/22 05:05:30;;;;;;;10.32;5.85;;;;;;;16.48;100.00;93128.59;5109075;27;20411;-83
2023/09/22 05:07:57;;;;;;;9.57;5.80;;;;;;;16.48;100.00;93129.38;5108622;27;20199;-84
2023/09/22 05:10:24;;;;;;;11.27;5.72;;;;;;;16.43;100.00;93117.16;5109222;27;20050;-84
2023/09/22 05:12:52;;;;;;;24.02;14.77;;;;;;;16.48;100.00;93126.00;5108412;27;20054;-83
2023/09/22 05:15:19;;;;;;;12.10;7.40;;;;;;;16.46;100.00;93115.09;5108706;27;20051;-84
2023/09/22 05:17:46;;;;;;;15.27;7.72;;;;;;;16.60;100.00;93126.63;5110717;27;20040;-84
2023/09/22 05:20:14;;;;;;;15.18;7.72;;;;;;;16.69;100.00;93125.13;5108659;27;20059;-84
2023/09/22 05:22:42;;;;;;;12.85;7.20;;;;;;;16.67;100.00;93118.63;5108099;27;20040;-84
2023/09/22 05:25:12;;;;;;;11.82;7.15;;;;;;;16.90;100.00;93138.22;5110350;27;20421;-83
2023/09/22 05:27:40;;;;;;;15.93;7.68;;;;;;;17.00;100.00;93144.50;5109074;27;20079;-84
2023/09/22 05:30:08;;;;;;;14.88;7.80;;;;;;;17.02;100.00;93140.63;5108661;27;20043;-84
2023/09/22 05:32:35;;;;;;;12.13;6.97;;;;;;;17.08;100.00;93125.91;5113210;27;20055;-84
2023/09/22 05:35:02;;;;;;;14.68;6.75;;;;;;;17.26;100.00;93149.84;5108336;27;20141;-84
2023/09/22 05:37:31;;;;;;;12.10;6.13;;;;;;;17.30;100.00;93130.13;5108597;27;20212;-84
2023/09/22 05:39:58;;;;;;;11.73;6.50;;;;;;;17.54;100.00;93155.69;5108927;27;20080;-84
2023/09/22 05:42:25;;;;;;;13.73;6.68;;;;;;;17.60;100.00;93149.47;5109733;27;20047;-84
2023/09/22 05:44:52;;;;;;;13.77;6.47;;;;;;;17.68;100.00;93156.00;5114042;27;20992;-85
2023/09/22 05:47:19;;;;;;;11.93;6.53;;;;;;;17.76;100.00;93158.88;5120322;27;20070;-85
2023/09/22 05:49:47;;;;;;;10.80;5.78;;;;;;;17.84;100.00;93151.63;5123744;27;20051;-85
2023/09/22 05:52:13;;;;;;;14.55;5.90;;;;;;;17.87;100.00;93157.06;5110173;28;20039;-85
2023/09/22 05:54:42;;;;;;;10.52;5.75;;;;;;;18.00;100.00;93160.22;5113705;27;20530;-85
2023/09/22 05:57:08;;;;;;;13.98;6.93;;;;;;;17.97;100.00;93140.72;5108906;28;20048;-85
2023/09/22 05:59:37;;;;;;;14.60;6.43;;;;;;;18.22;100.00;93161.84;5109668;28;20048;-85
2023/09/22 06:02:05;;;;;;;11.13;6.32;;;;;;;18.25;100.00;93167.34;5112929;28;20075;-85
2023/09/22 06:04:32;;;;;;;16.60;6.82;;;;;;;18.33;100.00;93166.00;5109184;28;20058;-82
2023/09/22 06:07:02;;;;;;;11.88;6.82;;;;;;;18.49;100.00;93177.22;5112505;28;20514;-83
2023/09/22 06:09:31;;;;;;;12.63;5.65;;;;;;;18.61;100.00;93170.97;5110043;28;20500;-83
2023/09/22 06:11:59;;;;;;;15.23;6.30;;;;;;;18.65;100.00;93165.00;5118351;28;20762;-78
2023/09/22 06:14:26;;;;;;;13.43;7.32;;;;;;;18.78;100.00;93170.69;5108758;28;20050;-78
2023/09/22 06:16:53;;;;;;;11.23;5.57;;;;;;;18.91;100.00;93180.59;5109661;28;20058;-83
2023/09/22 06:19:20;;;;;;;11.00;6.25;;;;;;;19.04;100.00;93170.72;5114597;28;20051;-83
2023/09/22 06:21:47;;;;;;;16.33;6.65;;;;;;;19.01;100.00;93165.97;5107796;27;20048;-83
2023/09/22 06:24:13;;;;;;;20.10;6.63;;;;;;;19.11;100.00;93168.59;5112826;28;20427;-82
2023/09/22 06:26:40;;;;;;;14.15;6.72;;;;;;;19.27;100.00;93174.56;5110167;28;20062;-83
2023/09/22 06:29:09;;;;;;;12.73;6.78;;;;;;;19.40;100.00;93178.44;5108310;28;20059;-83
2023/09/22 06:31:37;;;;;;;14.73;6.65;;;;;;;19.47;100.00;93175.53;5108555;28;20507;-84
2023/09/22 06:34:07;;;;;;;12.63;6.45;;;;;;;19.59;100.00;93183.81;5109250;28;20139;-83
2023/09/22 06:36:34;;;;;;;12.93;6.68;;;;;;;19.63;100.00;93177.03;5110836;28;20521;-84
2023/09/22 06:39:07;;;;;;;11.70;5.55;;;;;;;19.74;100.00;93175.19;5109343;28;20399;-83
2023/09/22 06:41:34;;;;;;;14.35;6.10;;;;;;;20.01;100.00;93204.53;5109985;28;20637;-84
2023/09/22 06:44:02;;;;;;;15.90;6.38;;;;;;;20.01;100.00;93186.28;5113132;28;20073;-83
2023/09/22 06:46:35;;;;;;;15.48;6.15;;;;;;;20.15;100.00;93195.06;5115567;27;20059;-84
2023/09/22 06:49:03;;;;;;;11.68;6.00;;;;;;;20.26;100.00;93214.06;5112875;28;20081;-84
2023/09/22 06:51:33;;;;;;;16.17;6.55;;;;;;;20.38;100.00;93215.56;5109875;28;20059;-83
2023/09/22 06:54:00;;;;;;;12.40;5.75;;;;;;;20.54;100.00;93213.59;5112960;28;20051;-84
2023/09/22 06:56:26;;;;;;;10.75;5.68;;;;;;;20.63;100.00;93221.63;5115071;28;20613;-84
2023/09/22 06:58:53;;;;;;;12.77;6.60;;;;;;;20.70;100.00;93222.88;5108494;28;20047;-84
2023/09/22 07:01:20;;;;;;;18.38;7.15;;;;;;;20.77;100.00;93227.81;5112709;28;20050;-83
2023/09/22 07:03:49;;;;;;;11.55;6.35;;;;;;;20.79;100.00;93222.31;5110698;27;20055;-84
2023/09/22 07:06:16;;;;;;;10.90;5.70;;;;;;;20.90;100.00;93225.66;5111806;27;20054;-85
2023/09/22 07:08:46;;;;;;;11.90;5.35;;;;;;;21.05;100.00;93230.75;5111767;27;20055;-83
2023/09/22 07:11:13;;;;;;;13.43;6.15;;;;;;;20.97;100.00;93210.47;5111177;27;20077;-83
2023/09/22 07:13:41;;;;;;;13.35;5.97;;;;;;;21.24;100.00;93243.09;5112277;27;20055;-85
2023/09/22 07:16:09;;;;;;;10.63;5.80;;;;;;;21.27;100.00;93236.56;5116623;27;20043;-84
2023/09/22 07:18:35;;;;;;;13.15;5.38;;;;;;;21.23;100.00;93223.28;5115908;27;20401;-85
2023/09/22 07:21:04;;;;;;;14.68;5.75;;;;;;;21.40;100.00;93238.53;5113399;27;20448;-86
2023/09/22 07:23:31;;;;;;;11.30;5.03;;;;;;;21.55;100.00;93248.03;5111494;27;20067;-85
2023/09/22 07:25:59;;;;;;;12.82;4.95;;;;;;;21.72;100.00;93239.78;5111067;27;20048;-86
2023/09/22 07:28:27;;;;;;;13.43;5.20;;;;;;;21.87;100.00;93238.84;5110949;27;20051;-86
2023/09/22 07:30:54;;;;;;;12.48;4.93;;;;;;;21.97;100.00;93234.53;5112382;27;20055;-81
2023/09/22 07:33:21;;;;;;;11.82;5.38;;;;;;;21.99;100.00;93235.06;5114990;27;20066;-82
2023/09/22 07:35:49;;;;;;;12.50;5.18;;;;;;;22.14;99.77;93234.84;5113938;27;20078;-84
2023/09/22 07:38:18;;;;;;;14.32;4.60;;;;;;;22.08;99.38;93225.50;5113460;27;20621;-83
2023/09/22 07:40:45;;;;;;;17.00;5.40;;;;;;;22.34;98.91;93243.50;5111588;27;20044;-84
2023/09/22 07:43:12;;;;;;;14.75;5.75;;;;;;;22.40;98.99;93237.13;5112093;27;20079;-81
2023/09/22 07:45:39;;;;;;;9.32;4.40;;;;;;;22.40;95.96;93236.34;5111901;27;20056;-82
2023/09/22 07:48:06;;;;;;;11.50;4.63;;;;;;;22.55;95.24;93233.53;5112495;27;20050;-84
2023/09/22 07:50:35;;;;;;;7.40;4.18;;;;;;;22.65;93.94;93240.47;5111577;27;20040;-81
2023/09/22 07:53:02;;;;;;;11.73;5.00;;;;;;;22.75;92.58;93236.13;5112635;27;20987;-81
2023/09/22 07:55:31;;;;;;;10.18;4.22;;;;;;;22.92;92.37;93239.00;5111954;27;20054;-80
2023/09/22 07:57:57;;;;;;;12.63;5.03;;;;;;;23.08;92.70;93238.75;5112261;27;20077;-81
2023/09/22 08:00:26;;;;;;;11.50;4.10;;;;;;;23.16;91.93;93224.22;5114504;27;20043;-82
2023/09/22 08:02:53;;;;;;;11.35;6.20;;;;;;;23.35;92.72;93229.44;5111601;27;20133;-82
2023/09/22 08:05:20;;;;;;;10.77;3.83;;;;;;;23.57;91.06;93246.34;5111293;27;20044;-81
2023/09/22 08:07:49;;;;;;;9.43;3.92;;;;;;;23.73;89.59;93236.34;5113007;27;20043;-81
2023/09/22 08:10:17;;;;;;;11.07;4.38;;;;;;;23.94;87.34;93244.63;5112029;27;20043;-82
2023/09/22 08:12:45;;;;;;;12.75;4.05;;;;;;;23.94;87.18;93225.47;5111608;27;20055;-83
2023/09/22 08:15:14;;;;;;;7.78;3.65;;;;;;;24.27;85.74;93248.97;5110961;27;20054;-85
2023/09/22 08:17:42;;;;;;;9.15;3.67;;;;;;;24.37;83.40;93234.84;5109675;27;20529;-83
2023/09/22 08:20:12;;;;;;;9.35;3.60;;;;;;;24.55;83.97;93251.53;5110977;27;20043;-83
2023/09/22 08:22:40;;;;;;;12.10;4.13;;;;;;;24.76;83.15;93243.94;5111525;27;20797;-82
2023/09/22 08:25:09;;;;;;;8.80;3.78;;;;;;;24.95;83.58;93238.56;5113069;27;20058;-82
2023/09/22 08:27:36;;;;;;;11.02;3.88;;;;;;;25.11;82.26;93234.78;5113873;27;20113;-82
2023/09/22 08:30:10;;;;;;;5.88;2.90;;;;;;;25.25;80.28;93239.94;5111980;27;20048;-85
2023/09/22 08:32:39;;;;;;;7.45;3.45;;;;;;;25.22;77.49;93220.28;5111158;27;20054;-86
2023/09/22 08:35:08;;;;;;;11.50;3.25;;;;;;;25.45;78.58;93244.69;5115820;27;20146;-84
2023/09/22 08:37:36;;;;;;;14.82;4.47;;;;;;;25.56;77.86;93232.09;5113267;27;20587;-82
2023/09/22 08:40:11;;;;;;;16.80;3.88;;;;;;;25.66;76.39;93227.63;5114195;27;20066;-86
2023/09/22 08:42:38;;;;;;;24.65;4.53;;;;;;;25.67;76.35;93229.97;5113619;27;20517;-85
2023/09/22 08:45:08;;;;;;;12.23;3.88;;;;;;;25.77;74.87;93230.78;5117126;27;20058;-85
2023/09/22 08:47:39;;;;;;;9.95;3.25;;;;;;;25.87;74.73;93238.41;5118650;27;20051;-85
2023/09/22 08:50:10;;;;;;;8.73;3.42;;;;;;;25.93;72.22;93239.81;5123121;27;20056;-82
2023/09/22 08:52:38;;;;;;;10.82;3.47;;;;;;;25.88;73.02;93232.81;5114068;27;20043;-85
2023/09/22 08:55:08;;;;;;;6.85;2.90;;;;;;;25.93;71.26;93226.66;5109868;27;20078;-81
2023/09/22 08:57:35;;;;;;;8.25;3.20;;;;;;;26.09;70.51;93223.56;5109734;27;20044;-81
2023/09/22 09:00:10;;;;;;;10.13;3.17;;;;;;;26.19;72.27;93214.63;5108955;27;20173;-87
2023/09/22 09:02:39;;;;;;;11.27;3.83;;;;;;;26.30;71.45;93215.91;5110005;27;20061;-84
2023/09/22 09:05:21;;;;;;;6.28;3.00;;;;;;;26.40;71.19;93204.28;5109308;27;20051;-81
2023/09/22 09:07:49;;;;;;;10.05;2.78;;;;;;;26.49;70.56;93212.19;5107256;27;20055;-81
2023/09/22 09:10:27;;;;;;;10.80;3.60;;;;;;;26.49;71.13;93212.97;5108970;27;20043;-82
2023/09/22 09:12:54;;;;;;;9.43;3.25;;;;;;;26.54;69.10;93218.06;5108874;27;20048;-83
2023/09/22 09:15:25;;;;;;;8.18;3.10;;;;;;;26.68;69.18;93215.28;5108804;27;20514;-85
2023/09/22 09:18:06;;;;;;;7.18;2.75;;;;;;;26.61;68.06;93196.53;5111177;27;20546;-85
2023/09/22 09:20:35;;;;;;;9.55;2.88;;;;;;;26.67;67.65;93195.28;5111763;27;20140;-84
2023/09/22 09:23:15;;;;;;;15.05;3.50;;;;;;;26.77;67.79;93188.94;5109090;27;20044;-86
2023/09/22 09:25:44;;;;;;;9.55;3.15;;;;;;;26.95;68.88;93202.09;5107758;28;20048;-86
2023/09/22 09:28:12;;;;;;;7.13;3.40;;;;;;;27.03;67.31;93190.00;5111056;27;20047;-83
2023/09/22 09:30:39;;;;;;;13.95;4.28;;;;;;;26.96;66.11;93179.91;5111833;27;20044;-85
2023/09/22 09:33:10;;;;;;;8.55;3.22;;;;;;;27.03;65.58;93179.44;5108689;27;20055;-84
2023/09/22 09:35:41;;;;;;;9.57;3.00;;;;;;;26.94;65.28;93168.94;5108454;28;20090;-83
2023/09/22 09:38:09;;;;;;;11.23;3.47;;;;;;;27.07;66.32;93178.50;5112401;27;20061;-83
2023/09/22 09:40:38;;;;;;;9.38;3.25;;;;;;;27.04;65.13;93175.72;5108423;28;20050;-83
2023/09/22 09:43:11;;;;;;;7.35;2.67;;;;;;;27.07;64.08;93178.50;5108048;27;20052;-82
2023/09/22 09:45:44;;;;;;;8.68;2.92;;;;;;;27.15;65.79;93169.00;5108298;27;20047;-82
2023/09/22 09:48:17;;;;;;;7.95;3.35;;;;;;;27.30;64.63;93172.22;5108454;28;20120;-82
2023/09/22 09:50:46;;;;;;;9.52;3.90;;;;;;;27.36;63.29;93170.97;5122163;27;20096;-84
2023/09/22 09:53:27;;;;;;;9.38;2.58;;;;;;;27.39;63.17;93166.91;5114053;28;20073;-84
2023/09/22 09:55:58;;;;;;;8.45;2.95;;;;;;;27.56;64.92;93166.84;5107897;27;20079;-86
2023/09/22 09:58:28;;;;;;;10.40;3.30;;;;;;;27.67;64.33;93161.22;5115621;27;20079;-86
2023/09/22 10:00:57;;;;;;;10.02;3.20;;;;;;;27.83;62.81;93172.78;5126661;27;20069;-84
2023/09/22 10:03:26;;;;;;;9.57;3.30;;;;;;;27.98;61.66;93173.28;5111188;28;20104;-82
2023/09/22 10:05:55;;;;;;;14.63;3.20;;;;;;;27.94;61.75;93159.19;5108832;28;20054;-84
2023/09/22 10:08:23;;;;;;;11.35;4.45;;;;;;;28.16;62.45;93179.25;5108279;28;20047;-82
2023/09/22 10:10:53;;;;;;;12.40;3.05;;;;;;;28.36;60.65;93172.44;5113959;28;20043;-84
2023/09/22 10:13:20;;;;;;;14.60;2.75;;;;;;;28.46;60.13;93179.19;5107589;28;20051;-87
2023/09/22 10:15:55;;;;;;;9.82;3.00;;;;;;;28.47;60.52;93175.44;5108754;28;20056;-85
2023/09/22 10:18:24;;;;;;;13.75;3.95;;;;;;;28.46;60.02;93160.69;5122239;28;20047;-87
2023/09/22 10:20:53;;;;;;;14.45;5.13;;;;;;;28.64;60.89;93171.88;5122830;28;20052;-83
2023/09/22 10:23:22;;;;;;;12.90;4.18;;;;;;;28.74;60.34;93169.94;5107902;28;20047;-83
2023/09/22 10:26:14;;;;;;;25.33;6.78;;;;;;;28.85;60.03;93165.00;5108182;28;20141;-83
2023/09/22 10:28:41;;;;;;;9.75;4.45;;;;;;;28.93;59.54;93161.56;5109580;28;20051;-85
2023/09/22 10:31:08;;;;;;;12.07;4.05;;;;;;;29.05;58.99;93158.94;5107929;28;20067;-83
2023/09/22 10:33:35;;;;;;;15.05;3.38;;;;;;;29.15;57.97;93157.72;5115496;28;20055;-84
2023/09/22 10:36:06;;;;;;;15.27;3.65;;;;;;;29.32;56.79;93162.06;5110037;28;20514;-84
2023/09/22 10:38:55;;;;;;;23.63;6.13;;;;;;;29.44;56.59;93153.31;5110452;27;20415;-88
2023/09/22 10:41:22;;;;;;;8.73;3.00;;;;;;;29.53;56.55;93145.31;5111432;27;20093;-83
2023/09/22 10:44:00;;;;;;;15.48;3.83;;;;;;;29.62;56.23;93147.09;5116095;27;20054;-84
2023/09/22 10:46:27;;;;;;;12.25;3.75;;;;;;;29.54;56.55;93144.22;5118263;27;20451;-86
2023/09/22 10:48:54;;;;;;;17.05;4.70;;;;;;;29.57;56.67;93135.59;5111794;27;20104;-87
2023/09/22 10:51:23;;;;;;;15.98;3.42;;;;;;;29.62;55.61;93142.53;5124102;27;20406;-85
2023/09/22 10:54:00;;;;;;;14.75;3.92;;;;;;;29.53;54.98;93132.06;5120030;27;20494;-85
2023/09/22 10:56:28;;;;;;;13.80;3.92;;;;;;;29.63;54.43;93141.47;5111064;27;20048;-85
2023/09/22 10:58:55;;;;;;;10.10;2.70;;;;;;;29.49;54.42;93117.19;5111045;27;20649;-86
2023/09/22 11:01:23;;;;;;;12.65;3.00;;;;;;;29.54;53.83;93138.94;5115873;27;20047;-87
2023/09/22 11:03:53;;;;;;;13.93;4.30;;;;;;;29.49;53.64;93111.91;5112423;27;20058;-85
2023/09/22 11:06:21;;;;;;;16.70;3.88;;;;;;;29.71;54.28;93131.88;5111237;27;20138;-83
2023/09/22 11:08:51;;;;;;;12.07;3.63;;;;;;;29.73;54.57;93117.19;5116068;27;20051;-85
2023/09/22 11:11:18;;;;;;;8.52;2.78;;;;;;;29.83;52.51;93123.91;5111118;27;20097;-85
2023/09/22 11:13:52;;;;;;;8.43;2.63;;;;;;;29.81;52.95;93112.84;5111497;27;20051;-85
2023/09/22 11:16:19;;;;;;;13.63;3.30;;;;;;;29.94;51.79;93115.50;5116726;27;20170;-86
2023/09/22 11:18:46;;;;;;;19.30;3.40;;;;;;;30.02;53.14;93106.63;5115594;27;20048;-87
2023/09/22 11:21:13;;;;;;;14.45;3.75;;;;;;;30.13;52.36;93112.28;5120364;27;20047;-82
2023/09/22 11:23:42;;;;;;;13.80;2.97;;;;;;;30.17;52.68;93107.06;5119298;27;20096;-88
2023/09/22 11:26:11;;;;;;;12.15;2.78;;;;;;;30.08;51.42;93107.19;5119462;27;20419;-86
2023/09/22 11:28:41;;;;;;;17.30;3.70;;;;;;;29.96;51.14;93086.78;5112729;27;20047;-86
2023/09/22 11:31:11;;;;;;;12.35;2.88;;;;;;;30.10;52.18;93091.75;5120418;27;20077;-86